PWSweather.com
Personal Weather Stations
Station Observations
KCOBLACK1
Chalet Park, Black Hawk, CO 80422

Chalet ParkBlack Hawk, CO 80422

Lat: 39.8294, Lon: -105.48

Elevation: 9370

Station Type: Vantage Pro2

http://www.oscaranddeb.com/weather

Latest ConditionsUpdated 10:20:00 PM MDT Sunday, Jun 24, 2018
Currently Today's Max Today's Min Today's Average
Temperature 47.1°F8.4°C 52.7°F11.5°C 40.7°F4.8°C 45.9°F7.7°C
Dew Point 34.8°F1.6°C 45.1°F7.3°C 31.7°F-0.2°C 39.1°F3.9°C
Winds 6.2 mph NW10.0 kmh NW 16.1 mph -25.9 kmh - - 4.2 mph 6.8 kmh
Wind Gusts 13.0 mph20.9 kmh 36.0 mph57.9 kmh - -
Humidity 62% 96% 52% 78%
Pressure 29.97 in1014.9 mb 29.97 in1014.9 mb 29.59 in1002.0 mb -
Precipitation - 0.40 in10.2 mm - -
Hour Temp Dew Point Humidity Winds Wind Gusts Pressure Precip Precip Rate Daily Precip Total
10:20 PM 47.1°F8.4°C 34.8°F1.6°C 62% 6.2 mph NW10.0 kmh NW 13.0 mph20.9 kmh 29.97 in1014.9 mb 0.00 in0.0 mm 0.00 in0.0 mm 0.40 in10.2 mm
10:15 PM 47.0°F8.3°C 35.1°F1.7°C 63% 6.7 mph NW10.8 kmh NW 13.0 mph20.9 kmh 29.97 in1014.9 mb 0.00 in0.0 mm 0.00 in0.0 mm 0.40 in10.2 mm
10:10 PM 46.9°F8.3°C 35.0°F1.7°C 63% 6.3 mph NW10.1 kmh NW 12.0 mph19.3 kmh 29.96 in1014.6 mb 0.00 in0.0 mm 0.00 in0.0 mm 0.40 in10.2 mm
10:05 PM 47.1°F8.4°C 35.6°F2.0°C 64% 5.3 mph NW8.5 kmh NW 12.0 mph19.3 kmh 29.96 in1014.6 mb 0.00 in0.0 mm 0.00 in0.0 mm 0.40 in10.2 mm
10:00 PM 47.2°F8.4°C 35.7°F2.1°C 64% 6.4 mph NW10.3 kmh NW 12.0 mph19.3 kmh 29.95 in1014.2 mb 0.00 in0.0 mm 0.00 in0.0 mm 0.40 in10.2 mm
09:55 PM 47.0°F8.3°C 35.9°F2.2°C 65% 6.1 mph NW9.8 kmh NW 11.0 mph17.7 kmh 29.95 in1014.2 mb 0.00 in0.0 mm 0.00 in0.0 mm 0.40 in10.2 mm
09:50 PM 46.8°F8.2°C 36.0°F2.2°C 66% 6.9 mph NW11.1 kmh NW 11.0 mph17.7 kmh 29.95 in1014.2 mb 0.00 in0.0 mm 0.00 in0.0 mm 0.40 in10.2 mm
09:45 PM 46.5°F8.1°C 36.1°F2.3°C 67% 6.5 mph NW10.5 kmh NW 10.0 mph16.1 kmh 29.95 in1014.2 mb 0.00 in0.0 mm 0.00 in0.0 mm 0.40 in10.2 mm
09:40 PM 45.8°F7.7°C 36.9°F2.7°C 71% 6.3 mph NW10.1 kmh NW 10.0 mph16.1 kmh 29.95 in1014.2 mb 0.00 in0.0 mm 0.00 in0.0 mm 0.40 in10.2 mm
09:35 PM 44.8°F7.1°C 37.7°F3.2°C 76% 5.6 mph NW9.0 kmh NW 10.0 mph16.1 kmh 29.94 in1013.9 mb 0.00 in0.0 mm 0.00 in0.0 mm 0.40 in10.2 mm
09:30 PM 43.3°F6.3°C 38.8°F3.8°C 84% 4.9 mph NW7.9 kmh NW 9.0 mph14.5 kmh 29.94 in1013.9 mb 0.00 in0.0 mm 0.00 in0.0 mm 0.40 in10.2 mm
09:25 PM 42.7°F5.9°C 40.3°F4.6°C 91% 4.1 mph NNW6.6 kmh NNW 7.0 mph11.3 kmh 29.93 in1013.5 mb 0.00 in0.0 mm 0.00 in0.0 mm 0.40 in10.2 mm
09:20 PM 42.7°F5.9°C 40.5°F4.7°C 92% 2.3 mph WNW3.7 kmh WNW 5.0 mph8.0 kmh 29.93 in1013.5 mb 0.00 in0.0 mm 0.00 in0.0 mm 0.40 in10.2 mm
09:15 PM 42.7°F5.9°C 40.3°F4.6°C 91% 0.9 mph SW1.4 kmh SW 3.0 mph4.8 kmh 29.92 in1013.2 mb 0.00 in0.0 mm 0.00 in0.0 mm 0.40 in10.2 mm
09:10 PM 42.9°F6.1°C 40.5°F4.7°C 91% 1.7 mph SW2.7 kmh SW 3.0 mph4.8 kmh 29.92 in1013.2 mb 0.00 in0.0 mm 0.00 in0.0 mm 0.40 in10.2 mm
09:05 PM 43.1°F6.2°C 40.4°F4.7°C 90% 1.9 mph WSW3.1 kmh WSW 3.0 mph4.8 kmh 29.92 in1013.2 mb 0.00 in0.0 mm 0.00 in0.0 mm 0.40 in10.2 mm
09:00 PM 43.3°F6.3°C 40.6°F4.8°C 90% 1.5 mph WSW2.4 kmh WSW 4.0 mph6.4 kmh 29.91 in1012.9 mb 0.00 in0.0 mm 0.00 in0.0 mm 0.40 in10.2 mm
08:55 PM 43.6°F6.4°C 40.6°F4.8°C 89% 1.9 mph SW3.1 kmh SW 4.0 mph6.4 kmh 29.91 in1012.9 mb 0.00 in0.0 mm 0.00 in0.0 mm 0.40 in10.2 mm
08:50 PM 44.0°F6.7°C 40.7°F4.8°C 88% 1.7 mph SSE2.7 kmh SSE 3.0 mph4.8 kmh 29.91 in1012.9 mb 0.00 in0.0 mm 0.00 in0.0 mm 0.40 in10.2 mm
08:45 PM 44.4°F6.9°C 40.8°F4.9°C 87% 0.5 mph ESE0.8 kmh ESE 2.0 mph3.2 kmh 29.91 in1012.9 mb 0.00 in0.0 mm 0.00 in0.0 mm 0.40 in10.2 mm
08:40 PM 44.7°F7.1°C 41.1°F5.1°C 87% Calm Calm -- 29.90 in1012.5 mb 0.00 in0.0 mm 0.00 in0.0 mm 0.40 in10.2 mm
08:35 PM 45.0°F7.2°C 41.1°F5.1°C 86% Calm Calm 1.0 mph1.6 kmh 29.91 in1012.9 mb 0.00 in0.0 mm 0.00 in0.0 mm 0.40 in10.2 mm
08:30 PM 45.3°F7.4°C 41.4°F5.2°C 86% 0.1 mph ESE0.2 kmh ESE 4.0 mph6.4 kmh 29.91 in1012.9 mb 0.00 in0.0 mm 0.00 in0.0 mm 0.40 in10.2 mm
08:25 PM 45.5°F7.5°C 41.3°F5.2°C 85% 1.0 mph ESE1.6 kmh ESE 5.0 mph8.0 kmh 29.90 in1012.5 mb 0.00 in0.0 mm 0.00 in0.0 mm 0.40 in10.2 mm
08:20 PM 45.9°F7.7°C 41.3°F5.2°C 84% 1.5 mph ESE2.4 kmh ESE 5.0 mph8.0 kmh 29.90 in1012.5 mb 0.00 in0.0 mm 0.00 in0.0 mm 0.40 in10.2 mm
08:15 PM 46.3°F7.9°C 41.1°F5.1°C 82% 2.3 mph ESE3.7 kmh ESE 7.0 mph11.3 kmh 29.90 in1012.5 mb 0.00 in0.0 mm 0.00 in0.0 mm 0.40 in10.2 mm
08:10 PM 47.0°F8.3°C 41.5°F5.3°C 81% 2.8 mph ESE4.5 kmh ESE 7.0 mph11.3 kmh 29.90 in1012.5 mb 0.00 in0.0 mm 0.00 in0.0 mm 0.40 in10.2 mm
08:05 PM 47.4°F8.6°C 41.5°F5.3°C 80% 1.7 mph E2.7 kmh E 6.0 mph9.7 kmh 29.89 in1012.2 mb 0.01 in0.3 mm 0.00 in0.0 mm 0.40 in10.2 mm
08:00 PM 47.9°F8.8°C 41.7°F5.4°C 79% 3.3 mph ENE5.3 kmh ENE 6.0 mph9.7 kmh 29.89 in1012.2 mb 0.01 in0.3 mm 0.00 in0.0 mm 0.40 in10.2 mm
07:55 PM 48.1°F8.9°C 41.2°F5.1°C 77% 1.7 mph SSW2.7 kmh SSW 5.0 mph8.0 kmh 29.89 in1012.2 mb 0.01 in0.3 mm 0.00 in0.0 mm 0.40 in10.2 mm
07:50 PM 48.7°F9.3°C 41.1°F5.1°C 75% 1.4 mph W2.3 kmh W 8.0 mph12.9 kmh 29.89 in1012.2 mb 0.01 in0.3 mm 0.00 in0.0 mm 0.40 in10.2 mm
07:45 PM 49.0°F9.4°C 38.5°F3.6°C 67% 2.4 mph NNW3.9 kmh NNW 8.0 mph12.9 kmh 29.89 in1012.2 mb 0.01 in0.3 mm 0.00 in0.0 mm 0.40 in10.2 mm
07:40 PM 49.0°F9.4°C 36.1°F2.3°C 61% 3.2 mph NW5.1 kmh NW 6.0 mph9.7 kmh 29.89 in1012.2 mb 0.01 in0.3 mm 0.00 in0.0 mm 0.40 in10.2 mm
07:35 PM 49.2°F9.6°C 35.9°F2.2°C 60% 2.8 mph NW4.5 kmh NW 5.0 mph8.0 kmh 29.88 in1011.9 mb 0.01 in0.3 mm 0.00 in0.0 mm 0.40 in10.2 mm
07:30 PM 49.5°F9.7°C 36.2°F2.3°C 60% 2.5 mph NW4.0 kmh NW 7.0 mph11.3 kmh 29.88 in1011.9 mb 0.01 in0.3 mm 0.00 in0.0 mm 0.40 in10.2 mm
07:25 PM 49.6°F9.8°C 36.7°F2.6°C 61% 3.3 mph NW5.3 kmh NW 7.0 mph11.3 kmh 29.89 in1012.2 mb 0.01 in0.3 mm 0.00 in0.0 mm 0.40 in10.2 mm
07:20 PM 49.4°F9.7°C 38.1°F3.4°C 65% 3.5 mph NNW5.6 kmh NNW 10.0 mph16.1 kmh 29.89 in1012.2 mb 0.01 in0.3 mm 0.00 in0.0 mm 0.40 in10.2 mm
07:15 PM 49.4°F9.7°C 36.5°F2.5°C 61% 5.1 mph N8.2 kmh N 14.0 mph22.5 kmh 29.89 in1012.2 mb 0.01 in0.3 mm 0.00 in0.0 mm 0.40 in10.2 mm
07:10 PM 50.2°F10.1°C 38.1°F3.4°C 63% 6.8 mph N10.9 kmh N 14.0 mph22.5 kmh 29.89 in1012.2 mb 0.01 in0.3 mm 0.12 in3.0 mm 0.40 in10.2 mm
07:05 PM 50.4°F10.2°C 37.0°F2.8°C 60% 4.2 mph N6.8 kmh N 9.0 mph14.5 kmh 29.88 in1011.9 mb 0.00 in0.0 mm 0.00 in0.0 mm 0.39 in9.9 mm
07:00 PM 50.5°F10.3°C 39.6°F4.2°C 66% 1.6 mph N2.6 kmh N 4.0 mph6.4 kmh 29.88 in1011.9 mb 0.00 in0.0 mm 0.00 in0.0 mm 0.39 in9.9 mm
06:55 PM 50.6°F10.3°C 37.7°F3.2°C 61% 1.6 mph N2.6 kmh N 12.0 mph19.3 kmh 29.88 in1011.9 mb 0.00 in0.0 mm 0.00 in0.0 mm 0.39 in9.9 mm
06:50 PM 50.9°F10.5°C 36.7°F2.6°C 58% 5.8 mph N9.3 kmh N 12.0 mph19.3 kmh 29.88 in1011.9 mb 0.00 in0.0 mm 0.00 in0.0 mm 0.39 in9.9 mm
06:45 PM 51.2°F10.7°C 36.0°F2.2°C 56% 5.3 mph N8.5 kmh N 9.0 mph14.5 kmh 29.87 in1011.5 mb 0.00 in0.0 mm 0.00 in0.0 mm 0.39 in9.9 mm
06:40 PM 51.7°F10.9°C 37.8°F3.2°C 59% 2.1 mph NNW3.4 kmh NNW 6.0 mph9.7 kmh 29.87 in1011.5 mb 0.00 in0.0 mm 0.00 in0.0 mm 0.39 in9.9 mm
06:35 PM 52.1°F11.2°C 36.4°F2.4°C 55% 1.4 mph NNW2.3 kmh NNW 7.0 mph11.3 kmh 29.86 in1011.2 mb 0.00 in0.0 mm 0.00 in0.0 mm 0.39 in9.9 mm
06:30 PM 52.3°F11.3°C 37.5°F3.1°C 57% 2.5 mph N4.0 kmh N 7.0 mph11.3 kmh 29.86 in1011.2 mb 0.00 in0.0 mm 0.00 in0.0 mm 0.39 in9.9 mm
06:25 PM 51.4°F10.8°C 37.6°F3.1°C 59% 1.8 mph N2.9 kmh N 9.0 mph14.5 kmh 29.86 in1011.2 mb 0.00 in0.0 mm 0.00 in0.0 mm 0.39 in9.9 mm
06:20 PM 51.0°F10.6°C 37.2°F2.9°C 59% 2.9 mph NNW4.7 kmh NNW 10.0 mph16.1 kmh 29.86 in1011.2 mb 0.00 in0.0 mm 0.00 in0.0 mm 0.39 in9.9 mm
06:15 PM 50.7°F10.4°C 36.0°F2.2°C 57% 4.4 mph NW7.1 kmh NW 11.0 mph17.7 kmh 29.86 in1011.2 mb 0.00 in0.0 mm 0.00 in0.0 mm 0.39 in9.9 mm
06:10 PM 50.4°F10.2°C 36.2°F2.3°C 58% 4.2 mph NW6.8 kmh NW 11.0 mph17.7 kmh 29.85 in1010.8 mb 0.00 in0.0 mm 0.00 in0.0 mm 0.39 in9.9 mm
06:05 PM 50.0°F10.0°C 35.4°F1.9°C 57% 4.2 mph W6.8 kmh W 12.0 mph19.3 kmh 29.84 in1010.5 mb 0.00 in0.0 mm 0.00 in0.0 mm 0.39 in9.9 mm
06:00 PM 50.1°F10.1°C 35.5°F1.9°C 57% 5.4 mph N8.7 kmh N 12.0 mph19.3 kmh 29.84 in1010.5 mb 0.00 in0.0 mm 0.00 in0.0 mm 0.39 in9.9 mm
05:55 PM 50.4°F10.2°C 35.3°F1.8°C 56% 5.9 mph NNW9.5 kmh NNW 12.0 mph19.3 kmh 29.84 in1010.5 mb 0.00 in0.0 mm 0.00 in0.0 mm 0.39 in9.9 mm
05:50 PM 50.8°F10.4°C 35.7°F2.1°C 56% 5.6 mph NW9.0 kmh NW 17.0 mph27.4 kmh 29.84 in1010.5 mb 0.00 in0.0 mm 0.00 in0.0 mm 0.39 in9.9 mm
05:45 PM 51.5°F10.8°C 35.4°F1.9°C 54% 5.6 mph NW9.0 kmh NW 17.0 mph27.4 kmh 29.84 in1010.5 mb 0.00 in0.0 mm 0.00 in0.0 mm 0.39 in9.9 mm
05:40 PM 52.3°F11.3°C 37.1°F2.8°C 56% 4.2 mph NW6.8 kmh NW 16.0 mph25.7 kmh 29.84 in1010.5 mb 0.00 in0.0 mm 0.00 in0.0 mm 0.39 in9.9 mm
05:35 PM 52.7°F11.5°C 35.6°F2.0°C 52% 4.8 mph W7.7 kmh W 16.0 mph25.7 kmh 29.84 in1010.5 mb 0.00 in0.0 mm 0.00 in0.0 mm 0.39 in9.9 mm
05:30 PM 52.7°F11.5°C 37.9°F3.3°C 57% 4.8 mph WNW7.7 kmh WNW 14.0 mph22.5 kmh 29.83 in1010.2 mb 0.00 in0.0 mm 0.00 in0.0 mm 0.39 in9.9 mm
05:25 PM 52.2°F11.2°C 36.1°F2.3°C 54% 8.3 mph N13.4 kmh N 15.0 mph24.1 kmh 29.83 in1010.2 mb 0.00 in0.0 mm 0.00 in0.0 mm 0.39 in9.9 mm
05:20 PM 51.6°F10.9°C 36.0°F2.2°C 55% 6.0 mph NW9.7 kmh NW 15.0 mph24.1 kmh 29.83 in1010.2 mb 0.00 in0.0 mm 0.00 in0.0 mm 0.39 in9.9 mm
05:15 PM 51.1°F10.6°C 35.5°F1.9°C 55% 7.0 mph WNW11.3 kmh WNW 15.0 mph24.1 kmh 29.83 in1010.2 mb 0.00 in0.0 mm 0.00 in0.0 mm 0.39 in9.9 mm
05:10 PM 50.6°F10.3°C 35.9°F2.2°C 57% 8.1 mph NW13.0 kmh NW 17.0 mph27.4 kmh 29.82 in1009.8 mb 0.00 in0.0 mm 0.00 in0.0 mm 0.39 in9.9 mm
05:05 PM 50.1°F10.1°C 36.8°F2.7°C 60% 9.5 mph NW15.3 kmh NW 21.0 mph33.8 kmh 29.82 in1009.8 mb 0.00 in0.0 mm 0.00 in0.0 mm 0.39 in9.9 mm
05:00 PM 49.9°F9.9°C 35.7°F2.1°C 58% 10.6 mph NW17.1 kmh NW 21.0 mph33.8 kmh 29.83 in1010.2 mb 0.00 in0.0 mm 0.00 in0.0 mm 0.39 in9.9 mm
04:55 PM 49.9°F9.9°C 36.1°F2.3°C 59% 8.3 mph NW13.4 kmh NW 21.0 mph33.8 kmh 29.82 in1009.8 mb 0.00 in0.0 mm 0.00 in0.0 mm 0.39 in9.9 mm
04:50 PM 50.3°F10.2°C 36.1°F2.3°C 58% 9.2 mph NW14.8 kmh NW 21.0 mph33.8 kmh 29.82 in1009.8 mb 0.00 in0.0 mm 0.00 in0.0 mm 0.39 in9.9 mm
04:45 PM 49.8°F9.9°C 35.6°F2.0°C 58% 11.7 mph NNW18.8 kmh NNW 20.0 mph32.2 kmh 29.82 in1009.8 mb 0.00 in0.0 mm 0.00 in0.0 mm 0.39 in9.9 mm
04:40 PM 49.1°F9.5°C 36.2°F2.3°C 61% 7.9 mph WNW12.7 kmh WNW 17.0 mph27.4 kmh 29.81 in1009.5 mb 0.00 in0.0 mm 0.00 in0.0 mm 0.39 in9.9 mm
04:35 PM 48.0°F8.9°C 35.6°F2.0°C 62% 4.9 mph WNW7.9 kmh WNW 19.0 mph30.6 kmh 29.82 in1009.8 mb 0.00 in0.0 mm 0.00 in0.0 mm 0.39 in9.9 mm
04:30 PM 48.1°F8.9°C 34.0°F1.1°C 58% 8.9 mph NW14.3 kmh NW 19.0 mph30.6 kmh 29.82 in1009.8 mb 0.00 in0.0 mm 0.00 in0.0 mm 0.39 in9.9 mm
04:25 PM 48.7°F9.3°C 35.0°F1.7°C 59% 7.2 mph W11.6 kmh W 15.0 mph24.1 kmh 29.82 in1009.8 mb 0.00 in0.0 mm 0.00 in0.0 mm 0.39 in9.9 mm
04:20 PM 48.7°F9.3°C 35.0°F1.7°C 59% 6.3 mph NW10.1 kmh NW 16.0 mph25.7 kmh 29.82 in1009.8 mb 0.00 in0.0 mm 0.00 in0.0 mm 0.39 in9.9 mm
04:15 PM 47.9°F8.8°C 33.8°F1.0°C 58% 8.7 mph NW14.0 kmh NW 17.0 mph27.4 kmh 29.82 in1009.8 mb 0.00 in0.0 mm 0.00 in0.0 mm 0.39 in9.9 mm
04:10 PM 47.5°F8.6°C 33.9°F1.1°C 59% 8.0 mph WNW12.9 kmh WNW 21.0 mph33.8 kmh 29.82 in1009.8 mb 0.00 in0.0 mm 0.00 in0.0 mm 0.39 in9.9 mm
04:05 PM 47.3°F8.5°C 33.3°F0.7°C 58% 9.3 mph WNW15.0 kmh WNW 21.0 mph33.8 kmh 29.81 in1009.5 mb 0.00 in0.0 mm 0.00 in0.0 mm 0.39 in9.9 mm
04:00 PM 47.3°F8.5°C 34.5°F1.4°C 61% 3.7 mph W6.0 kmh W 13.0 mph20.9 kmh 29.81 in1009.5 mb 0.00 in0.0 mm 0.00 in0.0 mm 0.39 in9.9 mm
03:55 PM 47.0°F8.3°C 34.3°F1.3°C 61% 4.8 mph NW7.7 kmh NW 15.0 mph24.1 kmh 29.82 in1009.8 mb 0.01 in0.3 mm 0.00 in0.0 mm 0.39 in9.9 mm
03:50 PM 47.0°F8.3°C 33.4°F0.8°C 59% 5.3 mph NW8.5 kmh NW 15.0 mph24.1 kmh 29.81 in1009.5 mb 0.01 in0.3 mm 0.00 in0.0 mm 0.39 in9.9 mm
03:45 PM 47.3°F8.5°C 32.8°F0.4°C 57% 5.3 mph NW8.5 kmh NW 13.0 mph20.9 kmh 29.82 in1009.8 mb 0.01 in0.3 mm 0.00 in0.0 mm 0.39 in9.9 mm
03:40 PM 47.4°F8.6°C 33.4°F0.8°C 58% 5.5 mph WNW8.9 kmh WNW 16.0 mph25.7 kmh 29.81 in1009.5 mb 0.01 in0.3 mm 0.00 in0.0 mm 0.39 in9.9 mm
03:35 PM 47.8°F8.8°C 32.4°F0.2°C 55% 6.0 mph W9.7 kmh W 16.0 mph25.7 kmh 29.80 in1009.1 mb 0.01 in0.3 mm 0.00 in0.0 mm 0.39 in9.9 mm
03:30 PM 48.1°F8.9°C 34.0°F1.1°C 58% 5.3 mph WSW8.5 kmh WSW 18.0 mph29.0 kmh 29.80 in1009.1 mb 0.02 in0.5 mm 0.00 in0.0 mm 0.39 in9.9 mm
03:25 PM 48.0°F8.9°C 31.7°F-0.2°C 53% 9.8 mph WNW15.8 kmh WNW 18.0 mph29.0 kmh 29.79 in1008.8 mb 0.02 in0.5 mm 0.00 in0.0 mm 0.39 in9.9 mm
03:20 PM 47.9°F8.8°C 33.0°F0.6°C 56% 9.4 mph WSW15.1 kmh WSW 18.0 mph29.0 kmh 29.78 in1008.5 mb 0.03 in0.8 mm 0.00 in0.0 mm 0.39 in9.9 mm
03:15 PM 47.7°F8.7°C 34.1°F1.2°C 59% 8.7 mph SW14.0 kmh SW 17.0 mph27.4 kmh 29.77 in1008.1 mb 0.03 in0.8 mm 0.00 in0.0 mm 0.39 in9.9 mm
03:10 PM 46.9°F8.3°C 33.8°F1.0°C 60% 8.2 mph WSW13.2 kmh WSW 17.0 mph27.4 kmh 29.77 in1008.1 mb 0.03 in0.8 mm 0.00 in0.0 mm 0.39 in9.9 mm
03:05 PM 46.2°F7.9°C 33.9°F1.1°C 62% 9.4 mph WSW15.1 kmh WSW 22.0 mph35.4 kmh 29.78 in1008.5 mb 0.04 in1.0 mm 0.00 in0.0 mm 0.39 in9.9 mm
03:00 PM 45.2°F7.3°C 34.9°F1.6°C 67% 11.9 mph SW19.2 kmh SW 27.0 mph43.5 kmh 29.77 in1008.1 mb 0.05 in1.3 mm 0.00 in0.0 mm 0.39 in9.9 mm
02:55 PM 44.4°F6.9°C 34.1°F1.2°C 67% 15.2 mph SW24.5 kmh SW 27.0 mph43.5 kmh 29.76 in1007.8 mb 0.05 in1.3 mm 0.00 in0.0 mm 0.38 in9.7 mm
02:50 PM 44.5°F6.9°C 34.2°F1.2°C 67% 13.1 mph W21.1 kmh W 32.0 mph51.5 kmh 29.76 in1007.8 mb 0.06 in1.5 mm 0.00 in0.0 mm 0.38 in9.7 mm
02:45 PM 43.8°F6.6°C 35.0°F1.7°C 71% 13.8 mph W22.2 kmh W 32.0 mph51.5 kmh 29.75 in1007.5 mb 0.07 in1.8 mm 0.00 in0.0 mm 0.38 in9.7 mm
02:40 PM 43.6°F6.4°C 34.1°F1.2°C 69% 16.1 mph W25.9 kmh W 32.0 mph51.5 kmh 29.75 in1007.5 mb 0.09 in2.3 mm 0.00 in0.0 mm 0.38 in9.7 mm
02:35 PM 44.0°F6.7°C 35.2°F1.8°C 71% 12.4 mph W20.0 kmh W 30.0 mph48.3 kmh 29.74 in1007.1 mb 0.10 in2.5 mm 0.00 in0.0 mm 0.38 in9.7 mm
02:30 PM 44.6°F7.0°C 35.4°F1.9°C 70% 14.3 mph W23.0 kmh W 28.0 mph45.1 kmh 29.75 in1007.5 mb 0.11 in2.8 mm 0.00 in0.0 mm 0.37 in9.4 mm
02:25 PM 45.6°F7.6°C 36.0°F2.2°C 69% 12.7 mph W20.4 kmh W 36.0 mph57.9 kmh 29.75 in1007.5 mb 0.12 in3.0 mm 0.00 in0.0 mm 0.37 in9.4 mm
02:20 PM 46.9°F8.3°C 35.8°F2.1°C 65% 14.9 mph WNW24.0 kmh WNW 36.0 mph57.9 kmh 29.75 in1007.5 mb 0.12 in3.0 mm 0.00 in0.0 mm 0.36 in9.1 mm
02:15 PM 47.8°F8.8°C 35.4°F1.9°C 62% 12.9 mph W20.8 kmh W 24.0 mph38.6 kmh 29.75 in1007.5 mb 0.13 in3.3 mm 0.00 in0.0 mm 0.36 in9.1 mm
02:10 PM 48.8°F9.3°C 34.7°F1.5°C 58% 8.6 mph WSW13.8 kmh WSW 24.0 mph38.6 kmh 29.73 in1006.8 mb 0.15 in3.8 mm 0.00 in0.0 mm 0.36 in9.1 mm
02:05 PM 49.3°F9.6°C 36.4°F2.4°C 61% 6.5 mph WSW10.5 kmh WSW 20.0 mph32.2 kmh 29.73 in1006.8 mb 0.15 in3.8 mm 0.00 in0.0 mm 0.35 in8.9 mm
02:00 PM 49.6°F9.8°C 36.3°F2.4°C 60% 11.3 mph SW18.2 kmh SW 20.0 mph32.2 kmh 29.72 in1006.4 mb 0.16 in4.1 mm 0.01 in0.3 mm 0.34 in8.6 mm
01:55 PM 49.8°F9.9°C 38.9°F3.8°C 66% 5.7 mph WNW9.2 kmh WNW 15.0 mph24.1 kmh 29.72 in1006.4 mb 0.15 in3.8 mm 0.00 in0.0 mm 0.33 in8.4 mm
01:50 PM 48.9°F9.4°C 37.3°F2.9°C 64% 6.7 mph WNW10.8 kmh WNW 15.0 mph24.1 kmh 29.71 in1006.1 mb 0.15 in3.8 mm 0.00 in0.0 mm 0.32 in8.1 mm
01:45 PM 48.3°F9.1°C 35.9°F2.2°C 62% 6.8 mph W10.9 kmh W 15.0 mph24.1 kmh 29.71 in1006.1 mb 0.15 in3.8 mm 0.24 in6.1 mm 0.31 in7.9 mm
01:40 PM 47.7°F8.7°C 35.3°F1.8°C 62% 7.1 mph NW11.4 kmh NW 15.0 mph24.1 kmh 29.71 in1006.1 mb 0.13 in3.3 mm 0.00 in0.0 mm 0.29 in7.4 mm
01:35 PM 46.8°F8.2°C 37.5°F3.1°C 70% 6.2 mph NW10.0 kmh NW 14.0 mph22.5 kmh 29.72 in1006.4 mb 0.13 in3.3 mm 0.24 in6.1 mm 0.28 in7.1 mm
01:30 PM 46.1°F7.8°C 36.9°F2.7°C 70% 6.5 mph NW10.5 kmh NW 14.0 mph22.5 kmh 29.72 in1006.4 mb 0.11 in2.8 mm 0.00 in0.0 mm 0.26 in6.6 mm
01:25 PM 45.6°F7.6°C 38.5°F3.6°C 76% 6.3 mph NNW10.1 kmh NNW 17.0 mph27.4 kmh 29.72 in1006.4 mb 0.11 in2.8 mm 0.00 in0.0 mm 0.25 in6.4 mm
01:20 PM 45.3°F7.4°C 40.4°F4.7°C 83% 5.1 mph 8.2 kmh 17.0 mph27.4 kmh 29.72 in1006.4 mb 0.12 in3.0 mm 0.00 in0.0 mm 0.24 in6.1 mm
01:15 PM 44.7°F7.1°C 39.9°F4.4°C 83% 6.5 mph NW10.5 kmh NW 15.0 mph24.1 kmh 29.73 in1006.8 mb 0.13 in3.3 mm 0.00 in0.0 mm 0.23 in5.8 mm
01:10 PM 44.0°F6.7°C 41.3°F5.2°C 90% 5.2 mph N8.4 kmh N 13.0 mph20.9 kmh 29.73 in1006.8 mb 0.13 in3.3 mm 0.00 in0.0 mm 0.21 in5.3 mm
01:05 PM 43.3°F6.3°C 42.0°F5.6°C 95% 3.8 mph NE6.1 kmh NE 9.0 mph14.5 kmh 29.73 in1006.8 mb 0.14 in3.6 mm 0.00 in0.0 mm 0.20 in5.1 mm
01:00 PM 42.4°F5.8°C 40.8°F4.9°C 94% 3.9 mph ENE6.3 kmh ENE 9.0 mph14.5 kmh 29.73 in1006.8 mb 0.15 in3.8 mm 0.00 in0.0 mm 0.18 in4.6 mm
12:55 PM 41.9°F5.5°C 40.0°F4.4°C 93% 4.5 mph ENE7.2 kmh ENE 9.0 mph14.5 kmh 29.74 in1007.1 mb 0.17 in4.3 mm 0.00 in0.0 mm 0.18 in4.6 mm
12:50 PM 41.6°F5.3°C 39.5°F4.2°C 92% 5.0 mph E8.0 kmh E 9.0 mph14.5 kmh 29.74 in1007.1 mb 0.17 in4.3 mm 0.12 in3.0 mm 0.17 in4.3 mm
12:45 PM 41.5°F5.3°C 39.1°F3.9°C 91% 3.9 mph E6.3 kmh E 8.0 mph12.9 kmh 29.74 in1007.1 mb 0.16 in4.1 mm 0.00 in0.0 mm 0.16 in4.1 mm
12:40 PM 41.5°F5.3°C 39.1°F3.9°C 91% 4.4 mph NE7.1 kmh NE 8.0 mph12.9 kmh 29.73 in1006.8 mb 0.16 in4.1 mm 0.12 in3.0 mm 0.16 in4.1 mm
12:35 PM 41.5°F5.3°C 38.8°F3.8°C 90% 3.7 mph NE6.0 kmh NE 10.0 mph16.1 kmh 29.73 in1006.8 mb 0.15 in3.8 mm 0.00 in0.0 mm 0.15 in3.8 mm
12:30 PM 41.6°F5.3°C 38.9°F3.8°C 90% 4.3 mph N6.9 kmh N 15.0 mph24.1 kmh 29.73 in1006.8 mb 0.15 in3.8 mm 0.12 in3.0 mm 0.15 in3.8 mm
12:25 PM 40.9°F4.9°C 38.2°F3.4°C 90% 4.0 mph NW6.4 kmh NW 15.0 mph24.1 kmh 29.72 in1006.4 mb 0.14 in3.6 mm 0.24 in6.1 mm 0.14 in3.6 mm
12:20 PM 41.1°F5.1°C 37.2°F2.9°C 86% 2.8 mph NE4.5 kmh NE 8.0 mph12.9 kmh 29.72 in1006.4 mb 0.12 in3.0 mm 0.24 in6.1 mm 0.12 in3.0 mm
12:15 PM 42.2°F5.7°C 38.0°F3.3°C 85% 2.6 mph NE4.2 kmh NE 9.0 mph14.5 kmh 29.72 in1006.4 mb 0.10 in2.5 mm 0.24 in6.1 mm 0.10 in2.5 mm
12:10 PM 43.9°F6.6°C 38.8°F3.8°C 82% 3.9 mph N6.3 kmh N 9.0 mph14.5 kmh 29.71 in1006.1 mb 0.08 in2.0 mm 0.24 in6.1 mm 0.08 in2.0 mm
12:05 PM 45.9°F7.7°C 41.0°F5.0°C 83% 3.3 mph N5.3 kmh N 8.0 mph12.9 kmh 29.69 in1005.4 mb 0.06 in1.5 mm 0.36 in9.1 mm 0.06 in1.5 mm
12:00 PM 47.0°F8.3°C 43.0°F6.1°C 86% 3.0 mph NE4.8 kmh NE 7.0 mph11.3 kmh 29.68 in1005.1 mb 0.03 in0.8 mm 0.02 in0.5 mm 0.03 in0.8 mm
11:55 AM 47.4°F8.6°C 43.1°F6.2°C 85% 1.5 mph NE2.4 kmh NE 8.0 mph12.9 kmh 29.68 in1005.1 mb 0.01 in0.3 mm 0.12 in3.0 mm 0.01 in0.3 mm
11:50 AM 47.8°F8.8°C 42.6°F5.9°C 82% 3.0 mph E4.8 kmh E 9.0 mph14.5 kmh 29.67 in1004.7 mb 0.00 in0.0 mm 0.00 in0.0 mm 0.00 in0.0 mm
11:45 AM 48.2°F9.0°C 42.3°F5.7°C 80% 3.8 mph ENE6.1 kmh ENE 14.0 mph22.5 kmh 29.67 in1004.7 mb 0.00 in0.0 mm 0.00 in0.0 mm 0.00 in0.0 mm
11:40 AM 48.6°F9.2°C 42.4°F5.8°C 79% 5.6 mph E9.0 kmh E 14.0 mph22.5 kmh 29.66 in1004.4 mb 0.00 in0.0 mm 0.00 in0.0 mm 0.00 in0.0 mm
11:35 AM 49.0°F9.4°C 42.8°F6.0°C 79% 2.7 mph E4.3 kmh E 9.0 mph14.5 kmh 29.68 in1005.1 mb 0.00 in0.0 mm 0.00 in0.0 mm 0.00 in0.0 mm
11:30 AM 49.4°F9.7°C 42.8°F6.0°C 78% 4.1 mph E6.6 kmh E 10.0 mph16.1 kmh 29.68 in1005.1 mb 0.00 in0.0 mm 0.00 in0.0 mm 0.00 in0.0 mm
11:25 AM 49.7°F9.8°C 43.5°F6.4°C 79% 4.7 mph NE7.6 kmh NE 10.0 mph16.1 kmh 29.68 in1005.1 mb 0.00 in0.0 mm 0.00 in0.0 mm 0.00 in0.0 mm
11:20 AM 49.7°F9.8°C 44.1°F6.7°C 81% 2.7 mph E4.3 kmh E 8.0 mph12.9 kmh 29.67 in1004.7 mb 0.00 in0.0 mm 0.00 in0.0 mm 0.00 in0.0 mm
11:15 AM 49.6°F9.8°C 43.7°F6.5°C 80% 3.8 mph ENE6.1 kmh ENE 11.0 mph17.7 kmh 29.67 in1004.7 mb 0.00 in0.0 mm 0.00 in0.0 mm 0.00 in0.0 mm
11:10 AM 49.6°F9.8°C 43.0°F6.1°C 78% 4.8 mph ENE7.7 kmh ENE 11.0 mph17.7 kmh 29.67 in1004.7 mb 0.00 in0.0 mm 0.00 in0.0 mm 0.00 in0.0 mm
11:05 AM 49.8°F9.9°C 43.6°F6.4°C 79% 4.4 mph E7.1 kmh E 11.0 mph17.7 kmh 29.66 in1004.4 mb 0.00 in0.0 mm 0.00 in0.0 mm 0.00 in0.0 mm
11:00 AM 50.1°F10.1°C 43.8°F6.6°C 79% 6.4 mph E10.3 kmh E 11.0 mph17.7 kmh 29.66 in1004.4 mb 0.00 in0.0 mm 0.00 in0.0 mm 0.00 in0.0 mm
10:55 AM 50.1°F10.1°C 43.8°F6.6°C 79% 4.6 mph E7.4 kmh E 12.0 mph19.3 kmh 29.66 in1004.4 mb 0.00 in0.0 mm 0.00 in0.0 mm 0.00 in0.0 mm
10:50 AM 50.1°F10.1°C 43.5°F6.4°C 78% 6.2 mph E10.0 kmh E 12.0 mph19.3 kmh 29.66 in1004.4 mb 0.00 in0.0 mm 0.00 in0.0 mm 0.00 in0.0 mm
10:45 AM 50.0°F10.0°C 43.7°F6.5°C 79% 4.1 mph E6.6 kmh E 12.0 mph19.3 kmh 29.66 in1004.4 mb 0.00 in0.0 mm 0.00 in0.0 mm 0.00 in0.0 mm
10:40 AM 50.3°F10.2°C 44.0°F6.7°C 79% 3.1 mph E5.0 kmh E 11.0 mph17.7 kmh 29.66 in1004.4 mb 0.00 in0.0 mm 0.00 in0.0 mm 0.00 in0.0 mm
10:35 AM 50.9°F10.5°C 43.6°F6.4°C 76% 5.4 mph E8.7 kmh E 11.0 mph17.7 kmh 29.66 in1004.4 mb 0.00 in0.0 mm 0.00 in0.0 mm 0.00 in0.0 mm
10:30 AM 51.5°F10.8°C 44.5°F6.9°C 77% 3.6 mph E5.8 kmh E 11.0 mph17.7 kmh 29.67 in1004.7 mb 0.00 in0.0 mm 0.00 in0.0 mm 0.00 in0.0 mm
10:25 AM 51.4°F10.8°C 45.1°F7.3°C 79% 5.0 mph ENE8.0 kmh ENE 11.0 mph17.7 kmh 29.66 in1004.4 mb 0.00 in0.0 mm 0.00 in0.0 mm 0.00 in0.0 mm
10:20 AM 50.8°F10.4°C 44.2°F6.8°C 78% 4.6 mph E7.4 kmh E 11.0 mph17.7 kmh 29.66 in1004.4 mb 0.00 in0.0 mm 0.00 in0.0 mm 0.00 in0.0 mm
10:15 AM 49.9°F9.9°C 44.3°F6.8°C 81% 3.7 mph E6.0 kmh E 10.0 mph16.1 kmh 29.66 in1004.4 mb 0.00 in0.0 mm 0.00 in0.0 mm 0.00 in0.0 mm
10:10 AM 49.6°F9.8°C 43.4°F6.3°C 79% 3.5 mph E5.6 kmh E 8.0 mph12.9 kmh 29.66 in1004.4 mb 0.00 in0.0 mm 0.00 in0.0 mm 0.00 in0.0 mm
10:05 AM 49.6°F9.8°C 44.0°F6.7°C 81% 2.5 mph E4.0 kmh E 9.0 mph14.5 kmh 29.66 in1004.4 mb 0.00 in0.0 mm 0.00 in0.0 mm 0.00 in0.0 mm
10:00 AM 49.5°F9.7°C 43.9°F6.6°C 81% 3.8 mph E6.1 kmh E 9.0 mph14.5 kmh 29.65 in1004.1 mb 0.00 in0.0 mm 0.00 in0.0 mm 0.00 in0.0 mm
09:55 AM 49.5°F9.7°C 43.9°F6.6°C 81% 3.2 mph E5.1 kmh E 8.0 mph12.9 kmh 29.65 in1004.1 mb 0.00 in0.0 mm 0.00 in0.0 mm 0.00 in0.0 mm
09:50 AM 49.3°F9.6°C 43.7°F6.5°C 81% 3.4 mph E5.5 kmh E 7.0 mph11.3 kmh 29.65 in1004.1 mb 0.00 in0.0 mm 0.00 in0.0 mm 0.00 in0.0 mm
09:45 AM 49.1°F9.5°C 43.8°F6.6°C 82% 3.0 mph E4.8 kmh E 7.0 mph11.3 kmh 29.65 in1004.1 mb 0.00 in0.0 mm 0.00 in0.0 mm 0.00 in0.0 mm
09:40 AM 49.0°F9.4°C 43.7°F6.5°C 82% 3.3 mph E5.3 kmh E 7.0 mph11.3 kmh 29.65 in1004.1 mb 0.00 in0.0 mm 0.00 in0.0 mm 0.00 in0.0 mm
09:35 AM 49.1°F9.5°C 43.5°F6.4°C 81% 3.4 mph E5.5 kmh E 8.0 mph12.9 kmh 29.65 in1004.1 mb 0.00 in0.0 mm 0.00 in0.0 mm 0.00 in0.0 mm
09:30 AM 49.1°F9.5°C 43.2°F6.2°C 80% 1.8 mph NE2.9 kmh NE 8.0 mph12.9 kmh 29.65 in1004.1 mb 0.00 in0.0 mm 0.00 in0.0 mm 0.00 in0.0 mm
09:25 AM 49.0°F9.4°C 43.4°F6.3°C 81% 1.8 mph ENE2.9 kmh ENE 7.0 mph11.3 kmh 29.65 in1004.1 mb 0.00 in0.0 mm 0.00 in0.0 mm 0.00 in0.0 mm
09:20 AM 48.9°F9.4°C 43.3°F6.3°C 81% 3.1 mph ENE5.0 kmh ENE 7.0 mph11.3 kmh 29.65 in1004.1 mb 0.00 in0.0 mm 0.00 in0.0 mm 0.00 in0.0 mm
09:15 AM 48.6°F9.2°C 43.4°F6.3°C 82% 2.2 mph E3.5 kmh E 7.0 mph11.3 kmh 29.65 in1004.1 mb 0.00 in0.0 mm 0.00 in0.0 mm 0.00 in0.0 mm
09:10 AM 48.3°F9.1°C 43.4°F6.3°C 83% 1.2 mph E1.9 kmh E 7.0 mph11.3 kmh 29.65 in1004.1 mb 0.00 in0.0 mm 0.00 in0.0 mm 0.00 in0.0 mm
09:05 AM 48.4°F9.1°C 42.8°F6.0°C 81% 0.7 mph N1.1 kmh N 3.0 mph4.8 kmh 29.65 in1004.1 mb 0.00 in0.0 mm 0.00 in0.0 mm 0.00 in0.0 mm
09:00 AM 48.7°F9.3°C 42.8°F6.0°C 80% 1.3 mph NE2.1 kmh NE 4.0 mph6.4 kmh 29.65 in1004.1 mb 0.00 in0.0 mm 0.00 in0.0 mm 0.00 in0.0 mm
08:55 AM 48.7°F9.3°C 42.5°F5.8°C 79% 1.2 mph ENE1.9 kmh ENE 4.0 mph6.4 kmh 29.65 in1004.1 mb 0.00 in0.0 mm 0.00 in0.0 mm 0.00 in0.0 mm
08:50 AM 48.5°F9.2°C 42.6°F5.9°C 80% 0.6 mph E1.0 kmh E 5.0 mph8.0 kmh 29.65 in1004.1 mb 0.00 in0.0 mm 0.00 in0.0 mm 0.00 in0.0 mm
08:45 AM 48.2°F9.0°C 43.0°F6.1°C 82% 1.2 mph E1.9 kmh E 5.0 mph8.0 kmh 29.65 in1004.1 mb 0.00 in0.0 mm 0.00 in0.0 mm 0.00 in0.0 mm
08:40 AM 47.7°F8.7°C 42.8°F6.0°C 83% 1.4 mph E2.3 kmh E 9.0 mph14.5 kmh 29.65 in1004.1 mb 0.00 in0.0 mm 0.00 in0.0 mm 0.00 in0.0 mm
08:35 AM 47.4°F8.6°C 42.8°F6.0°C 84% 3.0 mph NE4.8 kmh NE 9.0 mph14.5 kmh 29.65 in1004.1 mb 0.00 in0.0 mm 0.00 in0.0 mm 0.00 in0.0 mm
08:30 AM 46.9°F8.3°C 42.6°F5.9°C 85% 4.9 mph NE7.9 kmh NE 9.0 mph14.5 kmh 29.65 in1004.1 mb 0.00 in0.0 mm 0.00 in0.0 mm 0.00 in0.0 mm
08:25 AM 46.3°F7.9°C 42.3°F5.7°C 86% 4.2 mph NE6.8 kmh NE 9.0 mph14.5 kmh 29.65 in1004.1 mb 0.00 in0.0 mm 0.00 in0.0 mm 0.00 in0.0 mm
08:20 AM 45.8°F7.7°C 42.2°F5.7°C 87% 2.2 mph ENE3.5 kmh ENE 7.0 mph11.3 kmh 29.65 in1004.1 mb 0.00 in0.0 mm 0.00 in0.0 mm 0.00 in0.0 mm
08:15 AM 45.3°F7.4°C 42.3°F5.7°C 89% 3.2 mph ENE5.1 kmh ENE 7.0 mph11.3 kmh 29.65 in1004.1 mb 0.00 in0.0 mm 0.00 in0.0 mm 0.00 in0.0 mm
08:10 AM 44.9°F7.2°C 42.1°F5.6°C 90% 2.6 mph E4.2 kmh E 5.0 mph8.0 kmh 29.64 in1003.7 mb 0.00 in0.0 mm 0.00 in0.0 mm 0.00 in0.0 mm
08:05 AM 44.5°F6.9°C 42.0°F5.6°C 91% 1.4 mph ENE2.3 kmh ENE 5.0 mph8.0 kmh 29.64 in1003.7 mb 0.00 in0.0 mm 0.00 in0.0 mm 0.00 in0.0 mm
08:00 AM 44.2°F6.8°C 41.5°F5.3°C 90% 2.2 mph E3.5 kmh E 5.0 mph8.0 kmh 29.64 in1003.7 mb 0.00 in0.0 mm 0.00 in0.0 mm 0.00 in0.0 mm
07:55 AM 43.9°F6.6°C 41.4°F5.2°C 91% 1.2 mph SE1.9 kmh SE 5.0 mph8.0 kmh 29.65 in1004.1 mb 0.00 in0.0 mm 0.00 in0.0 mm 0.00 in0.0 mm
07:50 AM 43.6°F6.4°C 41.1°F5.1°C 91% 1.0 mph ESE1.6 kmh ESE 3.0 mph4.8 kmh 29.65 in1004.1 mb 0.00 in0.0 mm 0.00 in0.0 mm 0.00 in0.0 mm
07:45 AM 43.4°F6.3°C 41.5°F5.3°C 93% 0.7 mph SE1.1 kmh SE 4.0 mph6.4 kmh 29.64 in1003.7 mb 0.00 in0.0 mm 0.00 in0.0 mm 0.00 in0.0 mm
07:40 AM 43.1°F6.2°C 41.5°F5.3°C 94% 0.7 mph SE1.1 kmh SE 7.0 mph11.3 kmh 29.64 in1003.7 mb 0.00 in0.0 mm 0.00 in0.0 mm 0.00 in0.0 mm
07:35 AM 42.8°F6.0°C 41.5°F5.3°C 95% 1.9 mph SE3.1 kmh SE 7.0 mph11.3 kmh 29.64 in1003.7 mb 0.00 in0.0 mm 0.00 in0.0 mm 0.00 in0.0 mm
07:30 AM 42.4°F5.8°C 41.1°F5.1°C 95% 0.3 mph SSE0.5 kmh SSE 4.0 mph6.4 kmh 29.64 in1003.7 mb 0.00 in0.0 mm 0.00 in0.0 mm 0.00 in0.0 mm
07:25 AM 42.2°F5.7°C 40.9°F4.9°C 95% 0.3 mph SW0.5 kmh SW 3.0 mph4.8 kmh 29.63 in1003.4 mb 0.00 in0.0 mm 0.00 in0.0 mm 0.00 in0.0 mm
07:20 AM 41.9°F5.5°C 40.6°F4.8°C 95% 0.2 mph SW0.3 kmh SW 2.0 mph3.2 kmh 29.63 in1003.4 mb 0.00 in0.0 mm 0.00 in0.0 mm 0.00 in0.0 mm
07:15 AM 41.7°F5.4°C 40.6°F4.8°C 96% 0.4 mph SW0.6 kmh SW 2.0 mph3.2 kmh 29.63 in1003.4 mb 0.00 in0.0 mm 0.00 in0.0 mm 0.00 in0.0 mm
07:10 AM 41.5°F5.3°C 40.2°F4.6°C 95% 0.1 mph SW0.2 kmh SW 2.0 mph3.2 kmh 29.63 in1003.4 mb 0.00 in0.0 mm 0.00 in0.0 mm 0.00 in0.0 mm
07:05 AM 41.4°F5.2°C 40.3°F4.6°C 96% 0.4 mph SW0.6 kmh SW 2.0 mph3.2 kmh 29.62 in1003.0 mb 0.00 in0.0 mm 0.00 in0.0 mm 0.00 in0.0 mm
07:00 AM 41.2°F5.1°C 40.1°F4.5°C 96% 0.2 mph SW0.3 kmh SW 3.0 mph4.8 kmh 29.62 in1003.0 mb 0.00 in0.0 mm 0.00 in0.0 mm 0.00 in0.0 mm
06:55 AM 41.2°F5.1°C 39.9°F4.4°C 95% 1.2 mph SW1.9 kmh SW 3.0 mph4.8 kmh 29.62 in1003.0 mb 0.00 in0.0 mm 0.00 in0.0 mm 0.00 in0.0 mm
06:50 AM 41.0°F5.0°C 39.7°F4.3°C 95% 1.6 mph SW2.6 kmh SW 6.0 mph9.7 kmh 29.62 in1003.0 mb 0.00 in0.0 mm 0.00 in0.0 mm 0.00 in0.0 mm
06:45 AM 40.9°F4.9°C 39.6°F4.2°C 95% 2.7 mph SSW4.3 kmh SSW 6.0 mph9.7 kmh 29.62 in1003.0 mb 0.00 in0.0 mm 0.00 in0.0 mm 0.00 in0.0 mm
06:40 AM 40.7°F4.8°C 39.4°F4.1°C 95% 2.2 mph SW3.5 kmh SW 4.0 mph6.4 kmh 29.62 in1003.0 mb 0.00 in0.0 mm 0.00 in0.0 mm 0.00 in0.0 mm
06:35 AM 40.7°F4.8°C 39.4°F4.1°C 95% 2.6 mph SSW4.2 kmh SSW 4.0 mph6.4 kmh 29.62 in1003.0 mb 0.00 in0.0 mm 0.00 in0.0 mm 0.00 in0.0 mm
06:30 AM 40.7°F4.8°C 39.4°F4.1°C 95% 2.6 mph SSW4.2 kmh SSW 4.0 mph6.4 kmh 29.61 in1002.7 mb 0.00 in0.0 mm 0.00 in0.0 mm 0.00 in0.0 mm
06:25 AM 40.7°F4.8°C 39.4°F4.1°C 95% 2.4 mph SSW3.9 kmh SSW 6.0 mph9.7 kmh 29.61 in1002.7 mb 0.00 in0.0 mm 0.00 in0.0 mm 0.00 in0.0 mm
06:20 AM 40.8°F4.9°C 39.2°F4.0°C 94% 2.6 mph S4.2 kmh S 8.0 mph12.9 kmh 29.61 in1002.7 mb 0.00 in0.0 mm 0.00 in0.0 mm 0.00 in0.0 mm
06:15 AM 41.0°F5.0°C 39.4°F4.1°C 94% 3.5 mph SSE5.6 kmh SSE 9.0 mph14.5 kmh 29.61 in1002.7 mb 0.00 in0.0 mm 0.00 in0.0 mm 0.00 in0.0 mm
06:10 AM 41.1°F5.1°C 39.5°F4.2°C 94% 3.7 mph SSE6.0 kmh SSE 9.0 mph14.5 kmh 29.61 in1002.7 mb 0.00 in0.0 mm 0.00 in0.0 mm 0.00 in0.0 mm
06:05 AM 41.3°F5.2°C 39.7°F4.3°C 94% 3.8 mph S6.1 kmh S 13.0 mph20.9 kmh 29.61 in1002.7 mb 0.00 in0.0 mm 0.00 in0.0 mm 0.00 in0.0 mm
06:00 AM 41.3°F5.2°C 39.7°F4.3°C 94% 6.2 mph S10.0 kmh S 13.0 mph20.9 kmh 29.62 in1003.0 mb 0.00 in0.0 mm 0.00 in0.0 mm 0.00 in0.0 mm
05:55 AM 41.3°F5.2°C 39.7°F4.3°C 94% 4.5 mph S7.2 kmh S 9.0 mph14.5 kmh 29.61 in1002.7 mb 0.00 in0.0 mm 0.00 in0.0 mm 0.00 in0.0 mm
05:50 AM 41.3°F5.2°C 39.7°F4.3°C 94% 3.6 mph SSW5.8 kmh SSW 7.0 mph11.3 kmh 29.62 in1003.0 mb 0.00 in0.0 mm 0.00 in0.0 mm 0.00 in0.0 mm
05:45 AM 41.3°F5.2°C 39.7°F4.3°C 94% 2.5 mph SSW4.0 kmh SSW 9.0 mph14.5 kmh 29.62 in1003.0 mb 0.00 in0.0 mm 0.00 in0.0 mm 0.00 in0.0 mm
05:40 AM 41.3°F5.2°C 39.7°F4.3°C 94% 2.8 mph S4.5 kmh S 11.0 mph17.7 kmh 29.61 in1002.7 mb 0.00 in0.0 mm 0.00 in0.0 mm 0.00 in0.0 mm
05:35 AM 41.4°F5.2°C 39.5°F4.2°C 93% 5.5 mph SE8.9 kmh SE 12.0 mph19.3 kmh 29.60 in1002.4 mb 0.00 in0.0 mm 0.00 in0.0 mm 0.00 in0.0 mm
05:30 AM 41.5°F5.3°C 39.6°F4.2°C 93% 6.5 mph SE10.5 kmh SE 12.0 mph19.3 kmh 29.59 in1002.0 mb 0.00 in0.0 mm 0.00 in0.0 mm 0.00 in0.0 mm
05:25 AM 41.7°F5.4°C 39.6°F4.2°C 92% 4.5 mph SSE7.2 kmh SSE 12.0 mph19.3 kmh 29.59 in1002.0 mb 0.00 in0.0 mm 0.00 in0.0 mm 0.00 in0.0 mm
05:20 AM 41.8°F5.4°C 39.6°F4.2°C 92% 5.5 mph S8.9 kmh S 11.0 mph17.7 kmh 29.62 in1003.0 mb 0.00 in0.0 mm 0.00 in0.0 mm 0.00 in0.0 mm
05:15 AM 41.8°F5.4°C 39.6°F4.2°C 92% 6.0 mph SSE9.7 kmh SSE 11.0 mph17.7 kmh 29.62 in1003.0 mb 0.00 in0.0 mm 0.00 in0.0 mm 0.00 in0.0 mm
05:10 AM 41.7°F5.4°C 39.6°F4.2°C 92% 4.0 mph SE6.4 kmh SE 8.0 mph12.9 kmh 29.61 in1002.7 mb 0.00 in0.0 mm 0.00 in0.0 mm 0.00 in0.0 mm
05:05 AM 41.6°F5.3°C 39.7°F4.3°C 93% 2.1 mph SSE3.4 kmh SSE 4.0 mph6.4 kmh 29.62 in1003.0 mb 0.00 in0.0 mm 0.00 in0.0 mm 0.00 in0.0 mm
05:00 AM 41.6°F5.3°C 39.7°F4.3°C 93% 1.5 mph WSW2.4 kmh WSW 4.0 mph6.4 kmh 29.64 in1003.7 mb 0.00 in0.0 mm 0.00 in0.0 mm 0.00 in0.0 mm
04:55 AM 41.4°F5.2°C 39.5°F4.2°C 93% 0.1 mph NE0.2 kmh NE 4.0 mph6.4 kmh 29.64 in1003.7 mb 0.00 in0.0 mm 0.00 in0.0 mm 0.00 in0.0 mm
04:50 AM 41.3°F5.2°C 39.4°F4.1°C 93% 0.9 mph NE1.4 kmh NE 6.0 mph9.7 kmh 29.64 in1003.7 mb 0.00 in0.0 mm 0.00 in0.0 mm 0.00 in0.0 mm
04:45 AM 41.3°F5.2°C 39.2°F4.0°C 92% 3.2 mph NNE5.1 kmh NNE 6.0 mph9.7 kmh 29.64 in1003.7 mb 0.00 in0.0 mm 0.00 in0.0 mm 0.00 in0.0 mm
04:40 AM 41.4°F5.2°C 39.3°F4.1°C 92% Calm Calm 7.0 mph11.3 kmh 29.63 in1003.4 mb 0.00 in0.0 mm 0.00 in0.0 mm 0.00 in0.0 mm
04:35 AM 41.5°F5.3°C 39.4°F4.1°C 92% 2.1 mph SSE3.4 kmh SSE 7.0 mph11.3 kmh 29.61 in1002.7 mb 0.00 in0.0 mm 0.00 in0.0 mm 0.00 in0.0 mm
04:30 AM 41.6°F5.3°C 39.2°F4.0°C 91% 3.4 mph S5.5 kmh S 6.0 mph9.7 kmh 29.60 in1002.4 mb 0.00 in0.0 mm 0.00 in0.0 mm 0.00 in0.0 mm
04:25 AM 41.8°F5.4°C 39.4°F4.1°C 91% 2.7 mph SE4.3 kmh SE 6.0 mph9.7 kmh 29.60 in1002.4 mb 0.00 in0.0 mm 0.00 in0.0 mm 0.00 in0.0 mm
04:20 AM 42.0°F5.6°C 39.6°F4.2°C 91% 0.4 mph ESE0.6 kmh ESE 3.0 mph4.8 kmh 29.61 in1002.7 mb 0.00 in0.0 mm 0.00 in0.0 mm 0.00 in0.0 mm
04:15 AM 42.1°F5.6°C 39.4°F4.1°C 90% 1.0 mph ESE1.6 kmh ESE 3.0 mph4.8 kmh 29.62 in1003.0 mb 0.00 in0.0 mm 0.00 in0.0 mm 0.00 in0.0 mm
04:10 AM 42.2°F5.7°C 39.5°F4.2°C 90% 0.8 mph SE1.3 kmh SE 6.0 mph9.7 kmh 29.62 in1003.0 mb 0.00 in0.0 mm 0.00 in0.0 mm 0.00 in0.0 mm
04:05 AM 42.2°F5.7°C 39.5°F4.2°C 90% 1.8 mph S2.9 kmh S 7.0 mph11.3 kmh 29.62 in1003.0 mb 0.00 in0.0 mm 0.00 in0.0 mm 0.00 in0.0 mm
04:00 AM 42.3°F5.7°C 39.6°F4.2°C 90% 3.1 mph S5.0 kmh S 7.0 mph11.3 kmh 29.62 in1003.0 mb 0.00 in0.0 mm 0.00 in0.0 mm 0.00 in0.0 mm
03:55 AM 42.4°F5.8°C 39.7°F4.3°C 90% 2.3 mph SSW3.7 kmh SSW 4.0 mph6.4 kmh 29.63 in1003.4 mb 0.00 in0.0 mm 0.00 in0.0 mm 0.00 in0.0 mm
03:50 AM 42.5°F5.8°C 39.8°F4.3°C 90% 1.1 mph WSW1.8 kmh WSW 7.0 mph11.3 kmh 29.62 in1003.0 mb 0.00 in0.0 mm 0.00 in0.0 mm 0.00 in0.0 mm
03:45 AM 42.5°F5.8°C 39.8°F4.3°C 90% 2.6 mph S4.2 kmh S 7.0 mph11.3 kmh 29.63 in1003.4 mb 0.00 in0.0 mm 0.00 in0.0 mm 0.00 in0.0 mm
03:40 AM 42.6°F5.9°C 39.9°F4.4°C 90% 3.4 mph SW5.5 kmh SW 6.0 mph9.7 kmh 29.64 in1003.7 mb 0.00 in0.0 mm 0.00 in0.0 mm 0.00 in0.0 mm
03:35 AM 42.5°F5.8°C 40.1°F4.5°C 91% 3.9 mph SW6.3 kmh SW 6.0 mph9.7 kmh 29.65 in1004.1 mb 0.00 in0.0 mm 0.00 in0.0 mm 0.00 in0.0 mm
03:30 AM 42.5°F5.8°C 39.8°F4.3°C 90% 3.4 mph WSW5.5 kmh WSW 8.0 mph12.9 kmh 29.65 in1004.1 mb 0.00 in0.0 mm 0.00 in0.0 mm 0.00 in0.0 mm
03:25 AM 42.5°F5.8°C 39.8°F4.3°C 90% 3.8 mph SW6.1 kmh SW 8.0 mph12.9 kmh 29.63 in1003.4 mb 0.00 in0.0 mm 0.00 in0.0 mm 0.00 in0.0 mm
03:20 AM 42.6°F5.9°C 39.9°F4.4°C 90% 3.4 mph SW5.5 kmh SW 8.0 mph12.9 kmh 29.63 in1003.4 mb 0.00 in0.0 mm 0.00 in0.0 mm 0.00 in0.0 mm
03:15 AM 42.7°F5.9°C 40.0°F4.4°C 90% 2.1 mph S3.4 kmh S 8.0 mph12.9 kmh 29.61 in1002.7 mb 0.00 in0.0 mm 0.00 in0.0 mm 0.00 in0.0 mm
03:10 AM 42.7°F5.9°C 40.0°F4.4°C 90% 3.4 mph SSW5.5 kmh SSW 9.0 mph14.5 kmh 29.62 in1003.0 mb 0.00 in0.0 mm 0.00 in0.0 mm 0.00 in0.0 mm
03:05 AM 42.7°F5.9°C 40.0°F4.4°C 90% 3.8 mph S6.1 kmh S 9.0 mph14.5 kmh 29.62 in1003.0 mb 0.00 in0.0 mm 0.00 in0.0 mm 0.00 in0.0 mm
03:00 AM 42.7°F5.9°C 40.0°F4.4°C 90% 3.3 mph S5.3 kmh S 9.0 mph14.5 kmh 29.62 in1003.0 mb 0.00 in0.0 mm 0.00 in0.0 mm 0.00 in0.0 mm
02:55 AM 42.7°F5.9°C 40.0°F4.4°C 90% 1.8 mph SSE2.9 kmh SSE 4.0 mph6.4 kmh 29.64 in1003.7 mb 0.00 in0.0 mm 0.00 in0.0 mm 0.00 in0.0 mm
02:50 AM 42.8°F6.0°C 40.1°F4.5°C 90% 0.3 mph E0.5 kmh E 6.0 mph9.7 kmh 29.63 in1003.4 mb 0.00 in0.0 mm 0.00 in0.0 mm 0.00 in0.0 mm
02:45 AM 42.8°F6.0°C 40.1°F4.5°C 90% 1.3 mph E2.1 kmh E 6.0 mph9.7 kmh 29.63 in1003.4 mb 0.00 in0.0 mm 0.00 in0.0 mm 0.00 in0.0 mm
02:40 AM 42.8°F6.0°C 40.1°F4.5°C 90% 2.5 mph ENE4.0 kmh ENE 8.0 mph12.9 kmh 29.63 in1003.4 mb 0.00 in0.0 mm 0.00 in0.0 mm 0.00 in0.0 mm
02:35 AM 42.8°F6.0°C 40.1°F4.5°C 90% 3.4 mph E5.5 kmh E 8.0 mph12.9 kmh 29.63 in1003.4 mb 0.00 in0.0 mm 0.00 in0.0 mm 0.00 in0.0 mm
02:30 AM 42.8°F6.0°C 39.8°F4.3°C 89% 3.1 mph E5.0 kmh E 10.0 mph16.1 kmh 29.64 in1003.7 mb 0.00 in0.0 mm 0.00 in0.0 mm 0.00 in0.0 mm
02:25 AM 42.9°F6.1°C 39.9°F4.4°C 89% 3.6 mph E5.8 kmh E 10.0 mph16.1 kmh 29.64 in1003.7 mb 0.00 in0.0 mm 0.00 in0.0 mm 0.00 in0.0 mm
02:20 AM 43.0°F6.1°C 40.0°F4.4°C 89% 3.9 mph ENE6.3 kmh ENE 9.0 mph14.5 kmh 29.64 in1003.7 mb 0.00 in0.0 mm 0.00 in0.0 mm 0.00 in0.0 mm
02:15 AM 43.1°F6.2°C 39.8°F4.3°C 88% 4.4 mph ENE7.1 kmh ENE 10.0 mph16.1 kmh 29.65 in1004.1 mb 0.00 in0.0 mm 0.00 in0.0 mm 0.00 in0.0 mm
02:10 AM 43.2°F6.2°C 39.9°F4.4°C 88% 3.5 mph ENE5.6 kmh ENE 10.0 mph16.1 kmh 29.65 in1004.1 mb 0.00 in0.0 mm 0.00 in0.0 mm 0.00 in0.0 mm
02:05 AM 43.3°F6.3°C 40.0°F4.4°C 88% 4.3 mph E6.9 kmh E 10.0 mph16.1 kmh 29.64 in1003.7 mb 0.00 in0.0 mm 0.00 in0.0 mm 0.00 in0.0 mm
02:00 AM 43.3°F6.3°C 39.7°F4.3°C 87% 4.5 mph ENE7.2 kmh ENE 10.0 mph16.1 kmh 29.65 in1004.1 mb 0.00 in0.0 mm 0.00 in0.0 mm 0.00 in0.0 mm
01:55 AM 43.4°F6.3°C 39.8°F4.3°C 87% 2.8 mph ENE4.5 kmh ENE 12.0 mph19.3 kmh 29.65 in1004.1 mb 0.00 in0.0 mm 0.00 in0.0 mm 0.00 in0.0 mm
01:50 AM 43.4°F6.3°C 39.8°F4.3°C 87% 5.7 mph ENE9.2 kmh ENE 12.0 mph19.3 kmh 29.64 in1003.7 mb 0.00 in0.0 mm 0.00 in0.0 mm 0.00 in0.0 mm
01:45 AM 43.5°F6.4°C 39.9°F4.4°C 87% 3.8 mph ENE6.1 kmh ENE 9.0 mph14.5 kmh 29.66 in1004.4 mb 0.00 in0.0 mm 0.00 in0.0 mm 0.00 in0.0 mm
01:40 AM 43.5°F6.4°C 39.6°F4.2°C 86% 3.9 mph ENE6.3 kmh ENE 9.0 mph14.5 kmh 29.66 in1004.4 mb 0.00 in0.0 mm 0.00 in0.0 mm 0.00 in0.0 mm
01:35 AM 43.6°F6.4°C 39.7°F4.3°C 86% 4.9 mph ENE7.9 kmh ENE 13.0 mph20.9 kmh 29.66 in1004.4 mb 0.00 in0.0 mm 0.00 in0.0 mm 0.00 in0.0 mm
01:30 AM 43.7°F6.5°C 39.5°F4.2°C 85% 5.6 mph ENE9.0 kmh ENE 13.0 mph20.9 kmh 29.66 in1004.4 mb 0.00 in0.0 mm 0.00 in0.0 mm 0.00 in0.0 mm
01:25 AM 43.7°F6.5°C 39.2°F4.0°C 84% 3.4 mph ENE5.5 kmh ENE 7.0 mph11.3 kmh 29.67 in1004.7 mb 0.00 in0.0 mm 0.00 in0.0 mm 0.00 in0.0 mm
01:20 AM 43.7°F6.5°C 38.9°F3.8°C 83% 2.8 mph ENE4.5 kmh ENE 6.0 mph9.7 kmh 29.67 in1004.7 mb 0.00 in0.0 mm 0.00 in0.0 mm 0.00 in0.0 mm
01:15 AM 43.8°F6.6°C 39.0°F3.9°C 83% 3.4 mph ENE5.5 kmh ENE 7.0 mph11.3 kmh 29.66 in1004.4 mb 0.00 in0.0 mm 0.00 in0.0 mm 0.00 in0.0 mm
01:10 AM 43.9°F6.6°C 38.8°F3.8°C 82% 4.3 mph ENE6.9 kmh ENE 7.0 mph11.3 kmh 29.66 in1004.4 mb 0.00 in0.0 mm 0.00 in0.0 mm 0.00 in0.0 mm
01:05 AM 44.1°F6.7°C 38.6°F3.7°C 81% 2.5 mph E4.0 kmh E 5.0 mph8.0 kmh 29.66 in1004.4 mb 0.00 in0.0 mm 0.00 in0.0 mm 0.00 in0.0 mm
01:00 AM 44.2°F6.8°C 38.4°F3.6°C 80% 2.7 mph E4.3 kmh E 6.0 mph9.7 kmh 29.66 in1004.4 mb 0.00 in0.0 mm 0.00 in0.0 mm 0.00 in0.0 mm
12:55 AM 44.3°F6.8°C 38.5°F3.6°C 80% 2.6 mph NE4.2 kmh NE 6.0 mph9.7 kmh 29.66 in1004.4 mb 0.00 in0.0 mm 0.00 in0.0 mm 0.00 in0.0 mm
12:50 AM 44.5°F6.9°C 38.7°F3.7°C 80% 1.6 mph NE2.6 kmh NE 5.0 mph8.0 kmh 29.66 in1004.4 mb 0.00 in0.0 mm 0.00 in0.0 mm 0.00 in0.0 mm
12:45 AM 44.7°F7.1°C 38.6°F3.7°C 79% 0.7 mph NNE1.1 kmh NNE 4.0 mph6.4 kmh 29.66 in1004.4 mb 0.00 in0.0 mm 0.00 in0.0 mm 0.00 in0.0 mm
12:40 AM 44.9°F7.2°C 38.8°F3.8°C 79% 0.4 mph NNE0.6 kmh NNE 9.0 mph14.5 kmh 29.65 in1004.1 mb 0.00 in0.0 mm 0.00 in0.0 mm 0.00 in0.0 mm
12:35 AM 45.1°F7.3°C 39.0°F3.9°C 79% 3.1 mph NE5.0 kmh NE 9.0 mph14.5 kmh 29.64 in1003.7 mb 0.00 in0.0 mm 0.00 in0.0 mm 0.00 in0.0 mm
12:30 AM 45.2°F7.3°C 38.8°F3.8°C 78% 5.0 mph NE8.0 kmh NE 11.0 mph17.7 kmh 29.64 in1003.7 mb 0.00 in0.0 mm 0.00 in0.0 mm 0.00 in0.0 mm
12:25 AM 45.5°F7.5°C 39.0°F3.9°C 78% 4.9 mph NE7.9 kmh NE 11.0 mph17.7 kmh 29.64 in1003.7 mb 0.00 in0.0 mm 0.00 in0.0 mm 0.00 in0.0 mm
12:20 AM 45.8°F7.7°C 39.3°F4.1°C 78% 4.3 mph NE6.9 kmh NE 9.0 mph14.5 kmh 29.63 in1003.4 mb 0.00 in0.0 mm 0.00 in0.0 mm 0.00 in0.0 mm
12:15 AM 46.1°F7.8°C 39.3°F4.1°C 77% 5.0 mph NE8.0 kmh NE 11.0 mph17.7 kmh 29.64 in1003.7 mb 0.00 in0.0 mm 0.00 in0.0 mm 0.00 in0.0 mm
12:10 AM 46.6°F8.1°C 39.8°F4.3°C 77% 6.5 mph NE10.5 kmh NE 14.0 mph22.5 kmh 29.63 in1003.4 mb 0.00 in0.0 mm 0.00 in0.0 mm 0.00 in0.0 mm
12:05 AM 47.0°F8.3°C 39.8°F4.3°C 76% 7.0 mph NE11.3 kmh NE 14.0 mph22.5 kmh 29.64 in1003.7 mb 0.00 in0.0 mm 0.00 in0.0 mm 0.00 in0.0 mm
12:00 AM 47.4°F8.6°C 40.2°F4.6°C 76% 6.7 mph NE10.8 kmh NE 14.0 mph22.5 kmh 29.64 in1003.7 mb 0.00 in0.0 mm 0.00 in0.0 mm 0.00 in0.0 mm